createdAt,value
2018-04-23T00:00:57.572Z,16.10
2018-04-23T00:03:25.091Z,16.10
2018-04-23T00:05:53.336Z,16.10
2018-04-23T00:08:20.824Z,16.10
2018-04-23T00:10:49.067Z,16.10
2018-04-23T00:13:16.560Z,16.10
2018-04-23T00:15:44.799Z,16.20
2018-04-23T00:18:12.292Z,16.10
2018-04-23T00:20:40.537Z,16.10
2018-04-23T00:23:08.063Z,16.10
2018-04-23T00:25:36.284Z,16.00
2018-04-23T00:28:03.852Z,16.00
2018-04-23T00:30:32.103Z,15.90
2018-04-23T00:32:59.942Z,15.80
2018-04-23T00:35:27.428Z,15.80
2018-04-23T00:37:55.156Z,15.80
2018-04-23T00:40:22.663Z,15.80
2018-04-23T00:42:50.232Z,15.80
2018-04-23T00:45:18.508Z,15.60
2018-04-23T00:47:46.768Z,15.60
2018-04-23T00:50:14.459Z,15.60
2018-04-23T00:52:42.967Z,15.50
2018-04-23T00:55:10.735Z,15.50
2018-04-23T00:57:38.207Z,15.40
2018-04-23T01:00:05.691Z,15.30
2018-04-23T01:02:33.172Z,15.20
2018-04-23T01:05:01.463Z,15.10
2018-04-23T01:07:28.943Z,15.10
2018-04-23T01:09:56.431Z,15.00
2018-04-23T01:12:25.412Z,14.80
2018-04-23T01:14:52.892Z,14.80
2018-04-23T01:17:20.604Z,14.70
2018-04-23T01:19:48.368Z,14.70
2018-04-23T01:22:15.860Z,14.70
2018-04-23T01:24:43.481Z,14.60
2018-04-23T01:27:10.991Z,14.60
2018-04-23T01:29:38.811Z,14.60
2018-04-23T01:32:06.600Z,14.50
2018-04-23T01:34:34.071Z,14.50
2018-04-23T01:37:01.549Z,14.40
2018-04-23T01:39:29.807Z,14.30
2018-04-23T01:41:57.284Z,14.30
2018-04-23T01:44:25.543Z,14.20
2018-04-23T01:46:53.111Z,14.20
2018-04-23T01:49:21.640Z,14.10
2018-04-23T01:51:49.157Z,14.10
2018-04-23T01:54:17.412Z,14.10
2018-04-23T01:56:45.863Z,14.10
2018-04-23T01:59:13.377Z,14.10
2018-04-23T02:01:41.635Z,14.00
2018-04-23T02:04:09.888Z,13.90
2018-04-23T02:06:37.375Z,13.90
2018-04-23T02:09:05.619Z,13.80
2018-04-23T02:11:33.112Z,13.80
2018-04-23T02:14:01.351Z,13.50
2018-04-23T02:16:28.848Z,13.50
2018-04-23T02:18:57.092Z,13.40
2018-04-23T02:21:24.583Z,13.40
2018-04-23T02:23:52.956Z,13.40
2018-04-23T02:26:21.476Z,13.40
2018-04-23T02:28:49.236Z,13.40
2018-04-23T02:31:16.712Z,13.40
2018-04-23T02:33:44.420Z,13.40
2018-04-23T02:36:12.696Z,13.40
2018-04-23T02:38:40.972Z,13.20
2018-04-23T02:41:09.216Z,13.20
2018-04-23T02:43:36.716Z,13.20
2018-04-23T02:46:04.192Z,13.20
2018-04-23T02:48:31.669Z,13.20
2018-04-23T02:50:59.420Z,13.10
2018-04-23T02:53:26.899Z,13.20
2018-04-23T02:55:54.511Z,13.20
2018-04-23T02:58:22.304Z,13.30
2018-04-23T03:00:49.894Z,13.30
2018-04-23T03:03:17.448Z,13.30
2018-04-23T03:05:45.079Z,13.40
2018-04-23T03:08:12.639Z,13.40
2018-04-23T03:10:40.404Z,13.40
2018-04-23T03:13:07.991Z,13.40
2018-04-23T03:15:35.471Z,13.30
2018-04-23T03:18:02.963Z,13.30
2018-04-23T03:20:30.564Z,13.30
2018-04-23T03:22:58.300Z,13.20
2018-04-23T03:25:25.819Z,13.20
2018-04-23T03:27:54.059Z,13.20
2018-04-23T03:30:21.572Z,13.20
2018-04-23T03:32:49.054Z,13.10
2018-04-23T03:35:16.551Z,13.00
2018-04-23T03:37:44.108Z,13.10
2018-04-23T03:40:12.648Z,13.00
2018-04-23T03:42:40.119Z,13.00
2018-04-23T03:45:07.871Z,13.00
2018-04-23T03:47:35.356Z,13.00
2018-04-23T03:50:02.863Z,12.90
2018-04-23T03:52:30.411Z,12.90
2018-04-23T03:54:58.656Z,12.80
2018-04-23T03:57:26.179Z,12.80
2018-04-23T03:59:53.944Z,12.80
2018-04-23T04:02:21.441Z,12.80
2018-04-23T04:04:48.939Z,12.70
2018-04-23T04:07:16.720Z,12.70
2018-04-23T04:09:44.197Z,12.70
2018-04-23T04:12:23.771Z,12.70
2018-04-23T04:15:04.034Z,12.60
2018-04-23T04:31:11.907Z,12.40
2018-04-23T04:33:39.385Z,12.30
2018-04-23T04:36:07.652Z,12.50
2018-04-23T04:38:35.899Z,12.60
2018-04-23T04:41:03.391Z,12.60
2018-04-23T04:43:31.631Z,12.70
2018-04-23T04:45:59.112Z,12.70
2018-04-23T04:48:27.376Z,12.90
2018-04-23T04:50:54.859Z,12.90
2018-04-23T04:53:23.112Z,12.80
2018-04-23T04:55:50.595Z,12.80
2018-04-23T04:58:18.851Z,12.60
2018-04-23T05:00:46.332Z,12.60
2018-04-23T05:03:15.588Z,12.60
2018-04-23T05:05:43.068Z,12.60
2018-04-23T05:08:10.550Z,12.70
2018-04-23T05:10:38.048Z,12.70
2018-04-23T05:13:05.525Z,12.60
2018-04-23T05:15:33.028Z,12.60
2018-04-23T05:18:00.504Z,12.80
2018-04-23T05:20:27.996Z,13.00
2018-04-23T05:22:55.830Z,13.20
2018-04-23T05:25:23.323Z,13.50
2018-04-23T05:27:51.814Z,14.40
2018-04-23T05:30:20.088Z,14.20
2018-04-23T05:32:47.583Z,14.20
2018-04-23T05:35:15.060Z,14.20
2018-04-23T05:37:42.608Z,14.40
2018-04-23T05:40:10.804Z,15.70
2018-04-23T05:42:38.323Z,15.70
2018-04-23T05:45:06.576Z,17.80
2018-04-23T05:47:34.855Z,18.60
2018-04-23T05:50:03.685Z,19.30
2018-04-23T05:52:31.199Z,19.30
2018-04-23T05:54:59.534Z,20.90
2018-04-23T05:57:27.278Z,20.80
2018-04-23T05:59:54.991Z,21.30
2018-04-23T06:02:23.649Z,22.40
2018-04-23T06:04:51.905Z,22.40
2018-04-23T06:07:20.277Z,22.60
2018-04-23T06:09:48.522Z,22.80
2018-04-23T06:12:17.741Z,23.10
2018-04-23T06:14:48.326Z,22.70
2018-04-23T06:17:16.492Z,22.70
2018-04-23T06:19:44.259Z,22.80
2018-04-23T06:22:12.692Z,22.90
2018-04-23T06:24:40.565Z,23.20
2018-04-23T06:27:10.251Z,22.70
2018-04-23T06:29:38.240Z,22.00
2018-04-23T06:32:06.542Z,21.30
2018-04-23T06:34:35.920Z,20.60
2018-04-23T06:37:04.380Z,20.50
2018-04-23T06:39:32.156Z,20.20
2018-04-23T06:42:00.273Z,20.10
2018-04-23T06:44:28.922Z,20.10
2018-04-23T06:46:57.258Z,20.10
2018-04-23T06:49:24.979Z,20.10
2018-04-23T06:51:53.976Z,20.20
2018-04-23T06:54:23.397Z,20.80
2018-04-23T06:56:52.073Z,21.90
2018-04-23T06:59:23.391Z,23.00
2018-04-23T07:01:51.472Z,23.00
2018-04-23T07:04:19.429Z,23.00
2018-04-23T07:06:48.326Z,22.70
2018-04-23T07:09:16.400Z,22.20
2018-04-23T07:11:44.629Z,21.90
2018-04-23T07:14:14.120Z,21.70
2018-04-23T07:16:43.962Z,21.50
2018-04-23T07:19:13.474Z,21.50
2018-04-23T07:21:42.054Z,21.60
2018-04-23T07:24:11.287Z,22.20
2018-04-23T07:26:41.595Z,23.60
2018-04-23T07:29:11.105Z,23.50
2018-04-23T07:31:40.589Z,24.20
2018-04-23T07:34:08.468Z,24.20
2018-04-23T07:36:36.477Z,24.20
2018-04-23T07:39:06.633Z,23.90
2018-04-23T07:41:35.487Z,23.90
2018-04-23T07:44:05.741Z,23.90
2018-04-23T07:46:34.811Z,23.60
2018-04-23T07:49:04.199Z,23.60
2018-04-23T07:51:33.392Z,23.40
2018-04-23T07:54:02.048Z,23.50
2018-04-23T07:56:31.296Z,24.30
2018-04-23T07:59:00.717Z,25.20
2018-04-23T08:01:30.040Z,25.50
2018-04-23T08:03:57.813Z,25.40
2018-04-23T08:06:27.058Z,25.10
2018-04-23T08:08:55.859Z,24.90
2018-04-23T08:11:25.933Z,24.80
2018-04-23T08:13:54.816Z,24.40
2018-04-23T08:16:23.116Z,24.10
2018-04-23T08:18:50.852Z,24.10
2018-04-23T08:21:18.324Z,24.30
2018-04-23T08:23:45.818Z,24.30
2018-04-23T08:26:14.105Z,23.60
2018-04-23T08:28:42.622Z,23.50
2018-04-23T08:31:10.096Z,23.50
2018-04-23T08:33:37.571Z,23.10
2018-04-23T08:36:05.056Z,22.90
2018-04-23T08:38:33.299Z,22.50
2018-04-23T08:41:00.805Z,22.50
2018-04-23T08:43:28.295Z,22.60
2018-04-23T08:45:55.784Z,22.30
2018-04-23T08:48:23.364Z,22.00
2018-04-23T08:50:51.626Z,21.70
2018-04-23T08:53:19.345Z,21.70
2018-04-23T08:55:48.882Z,21.40
2018-04-23T08:58:17.725Z,20.90
2018-04-23T09:00:45.259Z,20.70
2018-04-23T09:03:14.592Z,20.30
2018-04-23T09:05:42.108Z,20.30
2018-04-23T09:08:10.367Z,19.90
2018-04-23T09:10:37.844Z,19.90
2018-04-23T09:13:06.367Z,19.30
2018-04-23T09:15:34.132Z,19.30
2018-04-23T09:18:01.617Z,18.80
2018-04-23T09:20:29.108Z,18.50
2018-04-23T09:22:57.352Z,18.10
2018-04-23T09:25:25.049Z,18.00
2018-04-23T09:27:53.569Z,18.20
2018-04-23T09:30:21.332Z,18.20
2018-04-23T09:32:48.881Z,18.30
2018-04-23T09:35:16.344Z,18.40
2018-04-23T09:37:43.856Z,18.60
2018-04-23T09:40:12.097Z,19.00
2018-04-23T09:42:39.599Z,19.00
2018-04-23T09:45:07.839Z,19.70
2018-04-23T09:47:35.733Z,19.70
2018-04-23T09:50:04.276Z,21.10
2018-04-23T09:52:31.880Z,21.10
2018-04-23T09:55:00.139Z,22.00
2018-04-23T09:57:27.708Z,21.90
2018-04-23T09:59:55.965Z,21.70
2018-04-23T10:02:23.692Z,21.60
2018-04-23T10:04:51.457Z,22.00
2018-04-23T10:07:18.968Z,22.60
2018-04-23T10:09:47.229Z,23.00
2018-04-23T10:12:14.731Z,23.00
2018-04-23T10:14:43.192Z,23.20
2018-04-23T10:17:11.498Z,23.30
2018-04-23T10:19:39.016Z,23.30
2018-04-23T10:22:07.268Z,23.60
2018-04-23T10:24:34.752Z,23.60
2018-04-23T10:27:03.036Z,23.10
2018-04-23T10:29:31.275Z,23.20
2018-04-23T10:31:58.763Z,23.20
2018-04-23T10:34:26.253Z,23.50
2018-04-23T10:36:53.790Z,23.30
2018-04-23T10:39:22.041Z,22.90
2018-04-23T10:41:49.547Z,22.90
2018-04-23T10:44:17.315Z,22.30
2018-04-23T10:46:44.977Z,21.20
2018-04-23T10:49:12.740Z,21.30
2018-04-23T10:51:40.228Z,21.10
2018-04-23T10:54:07.744Z,21.00
2018-04-23T10:56:35.520Z,20.70
2018-04-23T10:59:03.057Z,20.20
2018-04-23T11:01:30.536Z,20.20
2018-04-23T11:03:58.300Z,20.10
2018-04-23T11:06:25.835Z,20.00
2018-04-23T11:08:53.635Z,19.60
2018-04-23T11:11:21.135Z,18.90
2018-04-23T11:13:49.384Z,19.00
2018-04-23T11:16:16.899Z,19.00
2018-04-23T11:18:44.376Z,19.20
2018-04-23T11:21:11.880Z,19.20
2018-04-23T11:23:40.129Z,19.30
2018-04-23T11:26:07.604Z,19.20
2018-04-23T11:28:35.100Z,19.30
2018-04-23T11:31:02.847Z,19.70
2018-04-23T11:33:31.100Z,20.20
2018-04-23T11:35:58.580Z,20.10
2018-04-23T11:38:26.836Z,21.10
2018-04-23T11:40:54.307Z,21.10
2018-04-23T11:43:22.625Z,21.80
2018-04-23T11:45:50.141Z,21.80
2018-04-23T11:48:18.516Z,22.60
2018-04-23T11:50:46.792Z,22.80
2018-04-23T11:53:15.040Z,22.90
2018-04-23T11:55:42.563Z,22.90
2018-04-23T11:58:10.040Z,22.90
2018-04-23T12:00:37.536Z,22.20
2018-04-23T12:03:06.063Z,20.70
2018-04-23T12:05:33.581Z,20.70
2018-04-23T12:08:01.832Z,21.10
2018-04-23T12:10:29.457Z,21.10
2018-04-23T12:12:58.128Z,21.30
2018-04-23T12:15:25.906Z,21.40
2018-04-23T12:17:53.424Z,21.40
2018-04-23T12:20:21.679Z,21.80
2018-04-23T12:22:49.404Z,21.80
2018-04-23T12:25:16.907Z,21.90
2018-04-23T12:27:44.400Z,21.20
2018-04-23T12:30:11.885Z,20.70
2018-04-23T12:32:39.368Z,20.60
2018-04-23T12:35:07.624Z,19.80
2018-04-23T12:37:35.267Z,19.80
2018-04-23T12:40:02.838Z,19.50
2018-04-23T12:42:30.384Z,19.20
2018-04-23T12:44:57.904Z,19.30
2018-04-23T12:47:26.218Z,19.30
2018-04-23T12:49:53.716Z,19.30
2018-04-23T12:52:21.295Z,19.00
2018-04-23T12:54:49.585Z,18.60
2018-04-23T12:57:17.993Z,18.50
2018-04-23T12:59:45.514Z,18.50
2018-04-23T13:02:13.784Z,18.40
2018-04-23T13:04:42.029Z,18.60
2018-04-23T13:07:09.525Z,18.60
2018-04-23T13:09:37.767Z,18.70
2018-04-23T13:12:05.485Z,18.70
2018-04-23T13:14:33.772Z,18.80
2018-04-23T13:17:01.841Z,19.00
2018-04-23T13:19:30.368Z,19.10
2018-04-23T13:21:59.359Z,19.20
2018-04-23T13:24:29.223Z,19.20
2018-04-23T13:26:58.024Z,19.30
2018-04-23T13:29:25.985Z,19.40
2018-04-23T13:31:54.846Z,19.70
2018-04-23T13:34:24.178Z,19.70
2018-04-23T13:36:52.350Z,19.90
2018-04-23T13:39:21.349Z,20.10
2018-04-23T13:41:49.215Z,20.10
2018-04-23T13:44:17.396Z,20.30
2018-04-23T13:46:46.271Z,20.20
2018-04-23T13:49:15.749Z,20.10
2018-04-23T13:51:43.852Z,20.10
2018-04-23T13:54:12.361Z,20.30
2018-04-23T13:56:40.320Z,20.00
2018-04-23T13:59:08.882Z,19.50
2018-04-23T14:01:38.923Z,19.40
2018-04-23T14:04:08.609Z,19.40
2018-04-23T14:06:38.439Z,19.80
2018-04-23T14:09:07.854Z,19.80
2018-04-23T14:11:36.331Z,19.70
2018-04-23T14:14:04.000Z,19.90
2018-04-23T14:16:31.724Z,19.80
2018-04-23T14:18:59.694Z,19.90
2018-04-23T14:21:27.970Z,20.30
2018-04-23T14:23:55.740Z,19.90
2018-04-23T14:26:24.316Z,20.30
2018-04-23T14:28:51.990Z,20.70
2018-04-23T14:31:19.947Z,20.70
2018-04-23T14:33:49.862Z,20.10
2018-04-23T14:36:18.035Z,20.10
2018-04-23T14:38:46.310Z,20.60
2018-04-23T14:41:15.906Z,20.90
2018-04-23T14:43:43.792Z,20.90
2018-04-23T14:46:13.288Z,21.20
2018-04-23T14:48:41.462Z,21.20
2018-04-23T14:51:10.256Z,21.50
2018-04-23T14:53:38.176Z,21.50
2018-04-23T14:56:06.269Z,21.40
2018-04-23T14:58:34.769Z,21.30
2018-04-23T15:01:03.505Z,21.30
2018-04-23T15:03:31.320Z,20.90
2018-04-23T15:05:59.188Z,20.20
2018-04-23T15:08:30.563Z,20.20
2018-04-23T15:10:59.219Z,19.90
2018-04-23T15:13:27.279Z,19.90
2018-04-23T15:15:56.078Z,19.60
2018-04-23T15:18:25.760Z,19.50
2018-04-23T15:20:53.858Z,19.40
2018-04-23T15:23:22.413Z,19.70
2018-04-23T15:25:52.449Z,20.10
2018-04-23T15:28:20.245Z,20.00
2018-04-23T15:30:47.985Z,19.70
2018-04-23T15:33:16.368Z,19.30
2018-04-23T15:35:44.772Z,19.40
2018-04-23T15:38:12.709Z,19.30
2018-04-23T15:40:40.882Z,19.30
2018-04-23T15:43:10.140Z,19.20
2018-04-23T15:45:38.665Z,19.40
2018-04-23T15:48:06.428Z,19.30
2018-04-23T15:50:35.518Z,19.40
2018-04-23T15:53:03.598Z,19.20
2018-04-23T15:55:32.382Z,19.30
2018-04-23T15:58:01.170Z,19.20
2018-04-23T16:00:29.137Z,19.10
2018-04-23T16:02:57.111Z,18.90
2018-04-23T16:05:24.697Z,18.90
2018-04-23T16:07:52.946Z,18.80
2018-04-23T16:10:21.650Z,18.80
2018-04-23T16:12:51.235Z,18.60
2018-04-23T16:15:20.125Z,18.80
2018-04-23T16:17:48.401Z,18.80
2018-04-23T16:20:16.353Z,18.70
2018-04-23T16:22:45.562Z,18.80
2018-04-23T16:25:14.889Z,18.90
2018-04-23T16:27:43.489Z,18.90
2018-04-23T16:30:13.262Z,19.00
2018-04-23T16:32:41.708Z,19.00
2018-04-23T16:35:10.121Z,18.90
2018-04-23T16:37:39.018Z,18.80
2018-04-23T16:40:06.774Z,18.80
2018-04-23T16:42:35.096Z,18.80
2018-04-23T16:45:03.121Z,18.70
2018-04-23T16:47:31.603Z,18.70
2018-04-23T16:49:59.570Z,18.70
2018-04-23T16:52:28.768Z,18.80
2018-04-23T16:54:57.576Z,18.80
2018-04-23T16:57:26.344Z,18.80
2018-04-23T16:59:55.033Z,18.80
2018-04-23T17:02:23.100Z,18.80
2018-04-23T17:04:52.439Z,18.80
2018-04-23T17:07:20.202Z,18.90
2018-04-23T17:09:48.696Z,18.90
2018-04-23T17:12:16.513Z,18.80
2018-04-23T17:14:44.699Z,18.80
2018-04-23T17:17:12.551Z,18.80
2018-04-23T17:19:42.313Z,18.70
2018-04-23T17:22:09.864Z,18.70
2018-04-23T17:24:37.484Z,18.70
2018-04-23T17:27:06.841Z,18.70
2018-04-23T17:29:35.258Z,18.70
2018-04-23T17:32:03.222Z,18.70
2018-04-23T17:34:32.020Z,18.60
2018-04-23T17:37:01.166Z,18.50
2018-04-23T17:39:29.286Z,18.50
2018-04-23T17:41:57.742Z,18.40
2018-04-23T17:44:26.890Z,18.20
2018-04-23T17:46:55.782Z,18.20
2018-04-23T17:49:25.890Z,18.20
2018-04-23T17:51:54.509Z,18.20
2018-04-23T17:54:22.538Z,18.10
2018-04-23T17:56:52.033Z,18.10
2018-04-23T17:59:20.421Z,18.10
2018-04-23T18:01:48.379Z,18.00
2018-04-23T18:04:17.449Z,18.10
2018-04-23T18:06:46.848Z,18.10
2018-04-23T18:09:15.690Z,18.00
2018-04-23T18:11:44.424Z,18.00
2018-04-23T18:14:14.269Z,18.00
2018-04-23T18:16:42.538Z,18.00
2018-04-23T18:19:11.844Z,17.90
2018-04-23T18:21:40.844Z,17.90
2018-04-23T18:24:09.620Z,17.90
2018-04-23T18:26:39.251Z,17.80
2018-04-23T18:29:09.402Z,17.80
2018-04-23T18:31:37.316Z,17.80
2018-04-23T18:34:05.384Z,17.80
2018-04-23T18:36:34.380Z,17.70
2018-04-23T18:39:02.345Z,17.70
2018-04-23T18:41:30.928Z,17.60
2018-04-23T18:43:59.347Z,17.60
2018-04-23T18:46:27.642Z,17.60
2018-04-23T18:49:00.062Z,17.60
2018-04-23T18:51:28.918Z,17.60
2018-04-23T18:53:58.899Z,17.60
2018-04-23T18:56:27.797Z,17.60
2018-04-23T18:58:56.747Z,17.60
2018-04-23T19:01:30.518Z,17.50
2018-04-23T19:04:00.688Z,17.50
2018-04-23T19:06:31.011Z,17.50
2018-04-23T19:08:59.939Z,17.50
2018-04-23T19:11:30.127Z,17.40
2018-04-23T19:13:59.743Z,17.30
2018-04-23T19:16:29.093Z,17.30
2018-04-23T19:18:58.760Z,17.30
2018-04-23T19:21:28.050Z,17.30
2018-04-23T19:23:57.282Z,17.40
2018-04-23T19:26:26.911Z,17.40
2018-04-23T19:28:55.470Z,17.40
2018-04-23T19:31:24.942Z,17.40
2018-04-23T19:33:53.342Z,17.40
2018-04-23T19:36:22.153Z,17.40
2018-04-23T19:38:49.993Z,17.30
2018-04-23T19:41:18.322Z,17.30
2018-04-23T19:43:46.056Z,17.30
2018-04-23T19:46:15.563Z,17.30
2018-04-23T19:48:44.173Z,17.20
2018-04-23T19:51:13.071Z,17.10
2018-04-23T19:53:41.978Z,17.00
2018-04-23T19:56:11.134Z,17.00
2018-04-23T19:58:38.772Z,17.00
2018-04-23T20:01:08.558Z,17.00
2018-04-23T20:03:37.091Z,17.00
2018-04-23T20:06:04.766Z,17.00
2018-04-23T20:08:33.861Z,16.80
2018-04-23T20:11:02.547Z,16.80
2018-04-23T20:13:31.846Z,16.90
2018-04-23T20:16:00.838Z,17.00
2018-04-23T20:18:30.139Z,17.00
2018-04-23T20:20:58.839Z,17.00
2018-04-23T20:23:26.985Z,17.00
2018-04-23T20:25:54.766Z,17.00
2018-04-23T20:28:23.949Z,17.00
2018-04-23T20:30:52.644Z,16.90
2018-04-23T20:33:20.736Z,16.90
2018-04-23T20:35:50.118Z,16.90
2018-04-23T20:38:19.170Z,16.90
2018-04-23T20:40:47.387Z,16.90
2018-04-23T20:43:15.061Z,16.90
2018-04-23T20:45:43.027Z,16.80
2018-04-23T20:48:11.074Z,16.80
2018-04-23T20:50:39.376Z,16.80
2018-04-23T20:53:08.458Z,16.80
2018-04-23T20:55:37.277Z,16.70
2018-04-23T20:58:05.835Z,16.70
2018-04-23T21:00:33.599Z,16.70
2018-04-23T21:03:01.163Z,16.70
2018-04-23T21:05:29.135Z,16.70
2018-04-23T21:07:56.986Z,16.70
2018-04-23T21:10:24.916Z,16.70
2018-04-23T21:12:53.440Z,16.70
2018-04-23T21:15:22.037Z,16.60
2018-04-23T21:17:49.989Z,16.60
2018-04-23T21:20:17.956Z,16.60
2018-04-23T21:22:46.130Z,16.60
2018-04-23T21:25:13.775Z,16.50
2018-04-23T21:27:41.659Z,16.50
2018-04-23T21:30:09.524Z,16.50
2018-04-23T21:32:37.752Z,16.50
2018-04-23T21:35:05.957Z,16.50
2018-04-23T21:37:33.929Z,16.50
2018-04-23T21:40:02.526Z,16.40
2018-04-23T21:42:30.213Z,16.40
2018-04-23T21:44:57.951Z,16.40
2018-04-23T21:47:25.717Z,16.40
2018-04-23T21:49:53.479Z,16.30
2018-04-23T21:52:21.345Z,16.30
2018-04-23T21:54:49.366Z,16.20
2018-04-23T21:57:17.931Z,16.10
2018-04-23T21:59:45.517Z,16.00
2018-04-23T22:02:14.755Z,15.90
2018-04-23T22:04:43.868Z,15.90
2018-04-23T22:07:12.553Z,15.80
2018-04-23T22:09:41.017Z,15.80
2018-04-23T22:12:08.922Z,15.70
2018-04-23T22:14:37.592Z,15.70
2018-04-23T22:17:05.541Z,15.70
2018-04-23T22:19:33.720Z,15.70
2018-04-23T22:22:01.372Z,15.80
2018-04-23T22:24:29.341Z,15.80
2018-04-23T22:26:57.106Z,15.80
2018-04-23T22:29:25.411Z,15.80
2018-04-23T22:31:54.065Z,15.80
2018-04-23T22:34:22.035Z,15.70
2018-04-23T22:36:51.040Z,15.80
2018-04-23T22:39:18.724Z,15.80
2018-04-23T22:41:48.193Z,15.80
2018-04-23T22:44:16.060Z,15.70
2018-04-23T22:46:45.982Z,15.60
2018-04-23T22:49:14.351Z,15.60
2018-04-23T22:51:43.347Z,15.40
2018-04-23T22:54:11.108Z,15.30
2018-04-23T22:56:40.042Z,15.30
2018-04-23T22:59:08.891Z,15.30
2018-04-23T23:01:36.652Z,15.20
2018-04-23T23:04:04.457Z,15.20
2018-04-23T23:06:34.100Z,15.10
2018-04-23T23:09:01.786Z,15.00
2018-04-23T23:11:29.755Z,15.10
2018-04-23T23:13:57.624Z,15.00
2018-04-23T23:16:25.258Z,14.90
2018-04-23T23:18:53.045Z,14.90
2018-04-23T23:21:21.561Z,14.90
2018-04-23T23:23:49.538Z,14.90
2018-04-23T23:26:18.708Z,15.00
2018-04-23T23:28:46.459Z,15.00
2018-04-23T23:31:14.324Z,15.00
2018-04-23T23:33:42.292Z,15.00
2018-04-23T23:36:10.065Z,14.90
2018-04-23T23:38:38.332Z,14.80
2018-04-23T23:41:06.169Z,14.80
2018-04-23T23:43:35.154Z,14.60
2018-04-23T23:46:02.956Z,14.60
2018-04-23T23:48:31.239Z,14.60
2018-04-23T23:50:59.270Z,14.50
2018-04-23T23:53:27.273Z,14.40
2018-04-23T23:55:56.010Z,14.40
2018-04-23T23:58:23.791Z,14.30
